createdAt,value
2019-02-07T00:00:22.484Z,101197.08
2019-02-07T00:00:56.590Z,101194.98
2019-02-07T00:01:27.896Z,101194.09
2019-02-07T00:01:59.117Z,101194.48
2019-02-07T00:02:30.331Z,101191.50
2019-02-07T00:03:01.627Z,101191.50
2019-02-07T00:03:32.841Z,101192.80
2019-02-07T00:04:04.777Z,101190.59
2019-02-07T00:04:35.991Z,101189.80
2019-02-07T00:05:07.499Z,101198.88
2019-02-07T00:05:38.721Z,101190.70
2019-02-07T00:06:10.043Z,101190.70
2019-02-07T00:06:41.253Z,101203.67
2019-02-07T00:07:12.499Z,101200.17
2019-02-07T00:07:43.687Z,101199.99
2019-02-07T00:08:14.899Z,101206.66
2019-02-07T00:08:46.123Z,101209.36
2019-02-07T00:09:17.332Z,101209.36
2019-02-07T00:09:48.966Z,101206.34
2019-02-07T00:10:20.246Z,101205.36
2019-02-07T00:10:51.492Z,101205.36
2019-02-07T00:11:22.705Z,101210.15
2019-02-07T00:11:53.943Z,101211.45
2019-02-07T00:12:25.261Z,101211.84
2019-02-07T00:12:56.514Z,101212.23
2019-02-07T00:13:27.739Z,101211.84
2019-02-07T00:13:58.904Z,101211.73
2019-02-07T00:14:39.462Z,101209.14
2019-02-07T00:15:07.630Z,101211.34
2019-02-07T00:15:38.980Z,101211.73
2019-02-07T00:16:10.187Z,101211.66
2019-02-07T00:16:41.728Z,101211.66
2019-02-07T00:17:12.979Z,101209.06
2019-02-07T00:17:44.294Z,101209.06
2019-02-07T00:18:15.471Z,101210.04
2019-02-07T00:18:46.717Z,101216.02
2019-02-07T00:19:17.968Z,101204.46
2019-02-07T00:19:49.220Z,101200.17
2019-02-07T00:20:20.426Z,101205.86
2019-02-07T00:20:52.774Z,101205.86
2019-02-07T00:21:24.062Z,101208.06
2019-02-07T00:21:55.320Z,101194.09
2019-02-07T00:22:26.956Z,101193.70
2019-02-07T00:22:59.397Z,101193.70
2019-02-07T00:23:30.688Z,101196.29
2019-02-07T00:24:02.051Z,101196.29
2019-02-07T00:24:42.486Z,101185.41
2019-02-07T00:25:08.284Z,101192.51
2019-02-07T00:25:39.493Z,101192.51
2019-02-07T00:26:10.746Z,101194.20
2019-02-07T00:26:41.926Z,101197.19
2019-02-07T00:27:13.174Z,101196.39
2019-02-07T00:27:44.458Z,101192.00
2019-02-07T00:28:15.920Z,101192.00
2019-02-07T00:28:47.094Z,101192.00
2019-02-07T00:29:18.780Z,101196.80
2019-02-07T00:29:49.956Z,101196.80
2019-02-07T00:30:21.681Z,101182.93
2019-02-07T00:30:53.839Z,101189.48
2019-02-07T00:31:25.099Z,101184.23
2019-02-07T00:31:56.292Z,101187.72
2019-02-07T00:32:27.527Z,101193.80
2019-02-07T00:32:58.727Z,101198.66
2019-02-07T00:33:29.995Z,101189.59
2019-02-07T00:34:01.284Z,101187.32
2019-02-07T00:34:32.561Z,101189.98
2019-02-07T00:35:07.667Z,101191.78
2019-02-07T00:35:38.969Z,101173.57
2019-02-07T00:36:10.573Z,101173.57
2019-02-07T00:36:41.857Z,101188.40
2019-02-07T00:37:13.141Z,101190.99
2019-02-07T00:37:44.409Z,101180.62
2019-02-07T00:38:15.661Z,101186.70
2019-02-07T00:38:46.852Z,101189.30
2019-02-07T00:39:18.156Z,101187.50
2019-02-07T00:39:49.361Z,101182.31
2019-02-07T00:40:21.489Z,101177.13
2019-02-07T00:40:52.688Z,101177.13
2019-02-07T00:41:24.006Z,101153.73
2019-02-07T00:41:55.612Z,101153.73
2019-02-07T00:42:26.877Z,101178.93
2019-02-07T00:42:58.138Z,101169.92
2019-02-07T00:43:29.388Z,101168.13
2019-02-07T00:44:00.570Z,101163.84
2019-02-07T00:44:31.805Z,101169.13
2019-02-07T00:45:07.001Z,101144.84
2019-02-07T00:45:38.244Z,101166.65
2019-02-07T00:46:09.461Z,101167.52
2019-02-07T00:46:40.803Z,101167.52
2019-02-07T00:47:12.169Z,101157.14
2019-02-07T00:47:43.645Z,101166.65
2019-02-07T00:48:14.857Z,101169.31
2019-02-07T00:48:46.135Z,101169.31
2019-02-07T00:49:17.410Z,101172.80
2019-02-07T00:49:48.726Z,101171.91
2019-02-07T00:50:20.076Z,101170.11
2019-02-07T00:50:51.390Z,101170.11
2019-02-07T00:51:22.665Z,101174.09
2019-02-07T00:51:53.957Z,101168.81
2019-02-07T00:52:26.229Z,101171.83
2019-02-07T00:52:57.499Z,101164.92
2019-02-07T00:53:29.101Z,101172.70
2019-02-07T00:54:00.283Z,101172.70
2019-02-07T00:54:31.526Z,101167.52
2019-02-07T00:55:06.333Z,101157.36
2019-02-07T00:55:37.960Z,101158.87
2019-02-07T00:56:09.136Z,101156.17
2019-02-07T00:56:40.378Z,101155.84
2019-02-07T00:57:11.562Z,101153.18
2019-02-07T00:57:43.806Z,101154.08
2019-02-07T00:58:15.025Z,101157.36
2019-02-07T00:58:46.298Z,101157.36
2019-02-07T00:59:17.625Z,101149.98
2019-02-07T00:59:48.906Z,101149.98
2019-02-07T01:00:24.629Z,101158.66
2019-02-07T01:00:55.896Z,101158.66
2019-02-07T01:01:27.493Z,101157.76
2019-02-07T01:01:58.728Z,101157.76
2019-02-07T01:02:29.986Z,101161.64
2019-02-07T01:03:01.250Z,101160.78
2019-02-07T01:03:32.463Z,101160.78
2019-02-07T01:04:03.663Z,101149.12
2019-02-07T01:04:34.883Z,101133.45
2019-02-07T01:05:08.925Z,101138.64
2019-02-07T01:05:40.178Z,101140.44
2019-02-07T01:06:11.397Z,101140.44
2019-02-07T01:06:42.599Z,101117.73
2019-02-07T01:07:14.119Z,101133.95
2019-02-07T01:07:45.385Z,101141.23
2019-02-07T01:08:16.651Z,101141.23
2019-02-07T01:08:47.893Z,101139.94
2019-02-07T01:09:19.155Z,101137.73
2019-02-07T01:09:50.385Z,101137.73
2019-02-07T01:10:27.902Z,101149.01
2019-02-07T01:10:59.090Z,101142.92
2019-02-07T01:11:30.299Z,101139.94
2019-02-07T01:12:02.622Z,101135.66
2019-02-07T01:12:33.905Z,101135.66
2019-02-07T01:13:05.220Z,101137.34
2019-02-07T01:13:36.488Z,101137.34
2019-02-07T01:14:07.884Z,101126.58
2019-02-07T01:14:39.189Z,101129.46
2019-02-07T01:15:11.729Z,101124.88
2019-02-07T01:15:43.976Z,101131.83
2019-02-07T01:16:15.174Z,101123.66
2019-02-07T01:16:46.438Z,101125.45
2019-02-07T01:17:17.625Z,101112.50
2019-02-07T01:17:48.890Z,101118.97
2019-02-07T01:18:20.062Z,101124.27
2019-02-07T01:18:51.304Z,101121.28
2019-02-07T01:19:22.588Z,101115.19
2019-02-07T01:19:54.922Z,101119.48
2019-02-07T01:20:26.107Z,101119.48
2019-02-07T01:20:57.737Z,101124.56
2019-02-07T01:21:28.897Z,101128.45
2019-02-07T01:22:00.155Z,101130.25
2019-02-07T01:22:31.336Z,101134.53
2019-02-07T01:23:02.564Z,101129.34
2019-02-07T01:23:33.788Z,101123.77
2019-02-07T01:24:05.095Z,101112.89
2019-02-07T01:24:36.299Z,101119.98
2019-02-07T01:25:14.234Z,101121.67
2019-02-07T01:25:45.440Z,101128.16
2019-02-07T01:26:16.653Z,101124.27
2019-02-07T01:26:47.843Z,101116.95
2019-02-07T01:27:19.059Z,101104.82
2019-02-07T01:27:50.663Z,101088.27
2019-02-07T01:28:21.916Z,101083.18
2019-02-07T01:28:53.248Z,101091.75
2019-02-07T01:29:24.504Z,101104.32
2019-02-07T01:29:55.678Z,101095.14
2019-02-07T01:30:28.341Z,101084.09
2019-02-07T01:30:59.636Z,101083.20
2019-02-07T01:31:30.829Z,101083.20
2019-02-07T01:32:02.038Z,101064.02
2019-02-07T01:32:33.219Z,101071.53
2019-02-07T01:33:04.400Z,101065.48
2019-02-07T01:33:36.011Z,101058.50
2019-02-07T01:34:07.229Z,101058.50
2019-02-07T01:34:38.704Z,101071.06
2019-02-07T01:35:09.967Z,101062.78
2019-02-07T01:35:41.259Z,101062.78
2019-02-07T01:36:12.489Z,101052.41
2019-02-07T01:36:43.677Z,101031.70
2019-02-07T01:37:14.917Z,101048.70
2019-02-07T01:37:46.128Z,101049.09
2019-02-07T01:38:18.339Z,101058.05
2019-02-07T01:38:49.553Z,101058.05
2019-02-07T01:39:21.066Z,101065.05
2019-02-07T01:39:52.274Z,101061.27
2019-02-07T01:40:24.438Z,101049.20
2019-02-07T01:40:55.693Z,101031.28
2019-02-07T01:41:26.964Z,101044.41
2019-02-07T01:41:58.329Z,101044.41
2019-02-07T01:42:29.699Z,101064.25
2019-02-07T01:43:00.984Z,101088.59
2019-02-07T01:43:32.272Z,101107.53
2019-02-07T01:44:03.532Z,101110.52
2019-02-07T01:44:34.741Z,101113.01
2019-02-07T01:45:13.108Z,101105.66
2019-02-07T01:45:43.516Z,101101.27
2019-02-07T01:46:14.952Z,101101.27
2019-02-07T01:46:46.164Z,101100.88
2019-02-07T01:47:17.412Z,101115.53
2019-02-07T01:47:49.338Z,101127.59
2019-02-07T01:48:20.595Z,101124.09
2019-02-07T01:48:52.133Z,101124.09
2019-02-07T01:49:23.495Z,101123.20
2019-02-07T01:49:54.769Z,101121.91
2019-02-07T01:50:26.041Z,101126.59
2019-02-07T01:50:57.313Z,101125.11
2019-02-07T01:51:28.629Z,101131.77
2019-02-07T01:52:00.195Z,101127.88
2019-02-07T01:52:31.475Z,101124.72
2019-02-07T01:53:02.795Z,101130.30
2019-02-07T01:53:34.073Z,101105.90
2019-02-07T01:54:05.654Z,101111.52
2019-02-07T01:54:36.929Z,101124.61
2019-02-07T01:55:08.195Z,101124.14
2019-02-07T01:55:39.467Z,101123.24
2019-02-07T01:56:11.805Z,101130.19
2019-02-07T01:56:42.973Z,101125.44
2019-02-07T01:57:14.221Z,101118.95
2019-02-07T01:57:45.819Z,101129.80
2019-02-07T01:58:17.082Z,101122.84
2019-02-07T01:58:48.270Z,101122.84
2019-02-07T01:59:19.532Z,101118.95
2019-02-07T01:59:50.710Z,101118.95
2019-02-07T02:00:21.945Z,101118.95
2019-02-07T02:00:53.201Z,101115.07
2019-02-07T02:01:24.373Z,101107.59
2019-02-07T02:01:55.580Z,101107.59
2019-02-07T02:02:26.780Z,101099.81
2019-02-07T02:02:57.954Z,101092.33
2019-02-07T02:03:29.552Z,101094.63
2019-02-07T02:04:00.795Z,101090.73
2019-02-07T02:04:31.999Z,101091.92
2019-02-07T02:05:04.951Z,101091.92
2019-02-07T02:05:36.169Z,101085.84
2019-02-07T02:06:07.403Z,101078.90
2019-02-07T02:06:38.659Z,101078.90
2019-02-07T02:07:09.998Z,101076.70
2019-02-07T02:07:41.165Z,101077.09
2019-02-07T02:08:12.341Z,101057.89
2019-02-07T02:08:43.555Z,101081.48
2019-02-07T02:09:15.069Z,101082.68
2019-02-07T02:09:46.278Z,101076.92
2019-02-07T02:10:27.591Z,101075.13
2019-02-07T02:10:58.771Z,101072.03
2019-02-07T02:11:30.053Z,101063.47
2019-02-07T02:12:01.319Z,101073.94
2019-02-07T02:12:32.556Z,101072.21
2019-02-07T02:13:03.715Z,101074.41
2019-02-07T02:13:35.224Z,101072.31
2019-02-07T02:14:06.442Z,101064.94
2019-02-07T02:14:38.684Z,101064.94
2019-02-07T02:15:10.880Z,101069.33
2019-02-07T02:15:42.100Z,101062.34
2019-02-07T02:16:13.284Z,101053.27
2019-02-07T02:16:44.536Z,101058.45
2019-02-07T02:17:16.132Z,101058.39
2019-02-07T02:17:47.503Z,101062.84
2019-02-07T02:18:19.051Z,101072.02
2019-02-07T02:18:50.313Z,101069.90
2019-02-07T02:19:21.530Z,101069.90
2019-02-07T02:19:52.752Z,101055.69
2019-02-07T02:20:24.270Z,101073.39
2019-02-07T02:20:55.595Z,101067.81
2019-02-07T02:21:26.781Z,101063.34
2019-02-07T02:21:58.017Z,101065.11
2019-02-07T02:22:29.215Z,101056.37
2019-02-07T02:23:00.850Z,101060.76
2019-02-07T02:23:32.149Z,101055.57
2019-02-07T02:24:03.365Z,101055.64
2019-02-07T02:24:34.585Z,101055.75
2019-02-07T02:25:10.277Z,101055.75
2019-02-07T02:25:41.568Z,101055.35
2019-02-07T02:26:12.776Z,101051.86
2019-02-07T02:26:44.006Z,101048.88
2019-02-07T02:27:15.283Z,101047.58
2019-02-07T02:27:46.496Z,101046.97
2019-02-07T02:28:17.718Z,101042.22
2019-02-07T02:28:49.232Z,101042.22
2019-02-07T02:29:20.410Z,101019.35
2019-02-07T02:29:51.635Z,101032.04
2019-02-07T02:30:32.036Z,101033.44
2019-02-07T02:31:03.738Z,101031.64
2019-02-07T02:31:35.190Z,101034.56
2019-02-07T02:32:06.442Z,101036.76
2019-02-07T02:32:37.599Z,101035.86
2019-02-07T02:33:08.894Z,101039.75
2019-02-07T02:33:40.073Z,101019.65
2019-02-07T02:34:11.336Z,101019.65
2019-02-07T02:34:42.545Z,101033.27
2019-02-07T02:35:13.822Z,101029.67
2019-02-07T02:35:45.556Z,101032.19
2019-02-07T02:36:16.925Z,101025.44
2019-02-07T02:36:48.591Z,101022.12
2019-02-07T02:37:19.864Z,101022.12
2019-02-07T02:37:51.151Z,101031.19
2019-02-07T02:38:22.409Z,101031.19
2019-02-07T02:38:53.701Z,101034.17
2019-02-07T02:39:24.987Z,101030.69
2019-02-07T02:39:56.243Z,101030.69
2019-02-07T02:40:28.400Z,101031.59
2019-02-07T02:41:00.678Z,101031.59
2019-02-07T02:41:31.948Z,101014.52
2019-02-07T02:42:03.145Z,101014.52
2019-02-07T02:42:34.766Z,101009.73
2019-02-07T02:43:05.975Z,101037.49
2019-02-07T02:43:37.186Z,101037.49
2019-02-07T02:44:08.405Z,101020.88
2019-02-07T02:44:39.643Z,101032.70
2019-02-07T02:45:20.338Z,101032.70
2019-02-07T02:45:51.617Z,101040.08
2019-02-07T02:46:22.825Z,101031.80
2019-02-07T02:46:54.092Z,101030.22
2019-02-07T02:47:25.260Z,101028.42
2019-02-07T02:47:56.521Z,101030.62
2019-02-07T02:48:27.742Z,101033.21
2019-02-07T02:48:58.992Z,101033.21
2019-02-07T02:49:30.567Z,101032.31
2019-02-07T02:50:04.220Z,101035.80
2019-02-07T02:50:35.793Z,101037.49
2019-02-07T02:51:07.087Z,101037.49
2019-02-07T02:51:38.267Z,101033.11
2019-02-07T02:52:09.568Z,101033.11
2019-02-07T02:52:40.834Z,101033.11
2019-02-07T02:53:12.087Z,101030.52
2019-02-07T02:53:43.280Z,101026.45
2019-02-07T02:54:31.093Z,101030.11
2019-02-07T02:55:04.085Z,100991.03
2019-02-07T02:55:37.127Z,101020.55
2019-02-07T02:56:08.739Z,101010.11
2019-02-07T02:56:40.147Z,101010.11
2019-02-07T02:57:11.416Z,101007.52
2019-02-07T02:57:42.711Z,100997.16
2019-02-07T02:58:14.007Z,100995.86
2019-02-07T02:58:45.261Z,100992.77
2019-02-07T02:59:16.578Z,100990.68
2019-02-07T02:59:48.302Z,100990.68
2019-02-07T03:00:21.430Z,101003.13
2019-02-07T03:00:52.664Z,100996.55
2019-02-07T03:01:38.129Z,101006.52
2019-02-07T03:02:29.545Z,101006.02
2019-02-07T03:03:12.638Z,101006.02
2019-02-07T03:03:45.743Z,101014.11
2019-02-07T03:04:18.829Z,101012.49
2019-02-07T03:04:54.472Z,101006.73
2019-02-07T03:05:27.667Z,101013.22
2019-02-07T03:06:01.803Z,101004.05
2019-02-07T03:06:40.519Z,101006.63
2019-02-07T03:07:20.510Z,101009.63
2019-02-07T03:07:53.937Z,101002.24
2019-02-07T03:08:27.127Z,101001.38
2019-02-07T03:09:00.640Z,101007.03
2019-02-07T03:09:36.659Z,100984.44
2019-02-07T03:10:11.315Z,100984.44
2019-02-07T03:10:50.041Z,100985.63
2019-02-07T03:11:36.042Z,100984.73
2019-02-07T03:12:19.331Z,100978.25
2019-02-07T03:12:59.238Z,100979.66
2019-02-07T03:13:35.267Z,100985.56
2019-02-07T03:14:20.411Z,100981.17
2019-02-07T03:14:53.488Z,100974.20
2019-02-07T03:15:35.268Z,100982.86
2019-02-07T03:16:11.081Z,100977.18
2019-02-07T03:16:54.331Z,100978.41
2019-02-07T03:17:30.435Z,100982.77
2019-02-07T03:18:16.411Z,100977.18
2019-02-07T03:19:06.031Z,100976.78
2019-02-07T03:19:48.090Z,100984.55
2019-02-07T03:20:23.913Z,100982.77
2019-02-07T03:20:59.954Z,100981.79
2019-02-07T03:21:33.133Z,100980.50
2019-02-07T03:22:22.229Z,100984.38
2019-02-07T03:23:07.255Z,100982.30
2019-02-07T03:23:49.555Z,100985.34
2019-02-07T03:24:29.510Z,100982.47
2019-02-07T03:25:02.669Z,100982.07
2019-02-07T03:25:44.725Z,100978.19
2019-02-07T03:26:26.893Z,100956.58
2019-02-07T03:26:59.969Z,100977.17
2019-02-07T03:27:42.131Z,100973.75
2019-02-07T03:28:24.183Z,100973.75
2019-02-07T03:29:10.332Z,100973.28
2019-02-07T03:30:00.529Z,100972.67
2019-02-07T03:30:44.716Z,100970.91
2019-02-07T03:31:24.856Z,100970.81
2019-02-07T03:32:04.401Z,100961.97
2019-02-07T03:32:43.100Z,100963.55
2019-02-07T03:33:18.880Z,100963.55
2019-02-07T03:34:03.693Z,100967.37
2019-02-07T03:34:53.509Z,100973.23
2019-02-07T03:35:24.994Z,100973.23
2019-02-07T03:35:58.137Z,100980.22
2019-02-07T03:36:47.716Z,100980.22
2019-02-07T03:37:20.899Z,100972.66
2019-02-07T03:37:56.841Z,100972.66
2019-02-07T03:38:30.076Z,100969.68
2019-02-07T03:39:14.899Z,100971.66
2019-02-07T03:39:51.947Z,100972.95
2019-02-07T03:40:31.833Z,100966.41
2019-02-07T03:41:06.909Z,100966.41
2019-02-07T03:41:56.712Z,100971.59
2019-02-07T03:42:29.855Z,100968.10
2019-02-07T03:43:08.459Z,100964.61
2019-02-07T03:43:39.708Z,100963.72
2019-02-07T03:44:24.540Z,100958.44
2019-02-07T03:45:00.861Z,100961.42
2019-02-07T03:45:34.037Z,100961.42
2019-02-07T03:46:10.180Z,100959.27
2019-02-07T03:46:49.094Z,100963.55
2019-02-07T03:47:27.985Z,100964.84
2019-02-07T03:48:16.410Z,100941.27
2019-02-07T03:49:01.519Z,100961.84
2019-02-07T03:49:50.981Z,100965.23
2019-02-07T03:50:24.330Z,100966.92
2019-02-07T03:50:57.422Z,100963.04
2019-02-07T03:51:30.952Z,100965.02
2019-02-07T03:52:04.033Z,100964.16
2019-02-07T03:52:49.515Z,100969.02
2019-02-07T03:53:22.681Z,100952.80
2019-02-07T03:53:55.839Z,100960.17
2019-02-07T03:54:28.899Z,100960.17
2019-02-07T03:55:13.763Z,100961.97
2019-02-07T03:55:55.445Z,100961.97
2019-02-07T03:56:31.624Z,100956.39
2019-02-07T03:57:04.714Z,100956.39
2019-02-07T03:57:38.089Z,100961.64
2019-02-07T03:58:11.222Z,100964.73
2019-02-07T03:58:50.020Z,100961.25
2019-02-07T03:59:38.157Z,100961.25
2019-02-07T04:00:15.025Z,100963.83
2019-02-07T04:00:53.876Z,100964.16
2019-02-07T04:01:29.922Z,100964.05
2019-02-07T04:02:18.008Z,100960.06
2019-02-07T04:03:07.651Z,100964.77
2019-02-07T04:03:40.757Z,100966.86
2019-02-07T04:04:31.643Z,100966.36
2019-02-07T04:05:06.945Z,100963.27
2019-02-07T04:05:45.735Z,100972.33
2019-02-07T04:06:18.847Z,100958.88
2019-02-07T04:07:08.511Z,100960.17
2019-02-07T04:07:41.617Z,100964.95
2019-02-07T04:08:26.704Z,100952.34
2019-02-07T04:08:59.791Z,100952.34
2019-02-07T04:09:33.703Z,100957.41
2019-02-07T04:10:10.625Z,100956.05
2019-02-07T04:10:44.854Z,100959.31
2019-02-07T04:11:23.786Z,100960.61
2019-02-07T04:11:55.026Z,100959.14
2019-02-07T04:12:37.909Z,100955.55
2019-02-07T04:13:11.066Z,100956.77
2019-02-07T04:13:44.338Z,100955.08
2019-02-07T04:14:35.366Z,100957.23
2019-02-07T04:15:08.610Z,100957.66
2019-02-07T04:15:51.675Z,100951.48
2019-02-07T04:16:24.756Z,100953.67
2019-02-07T04:17:03.464Z,100954.47
2019-02-07T04:17:52.919Z,100949.51
2019-02-07T04:18:37.877Z,100949.51
2019-02-07T04:19:28.771Z,100948.50
2019-02-07T04:20:07.575Z,100950.02
2019-02-07T04:20:40.691Z,100955.59
2019-02-07T04:21:14.816Z,100950.41
2019-02-07T04:21:50.652Z,100950.91
2019-02-07T04:22:21.872Z,100955.80
2019-02-07T04:22:54.973Z,100955.41
2019-02-07T04:23:40.005Z,100955.41
2019-02-07T04:24:13.317Z,100954.90
2019-02-07T04:24:52.899Z,100952.70
2019-02-07T04:25:25.972Z,100950.12
2019-02-07T04:26:15.211Z,100950.12
2019-02-07T04:26:50.911Z,100946.23
2019-02-07T04:27:24.062Z,100947.92
2019-02-07T04:28:01.008Z,100948.50
2019-02-07T04:28:39.957Z,100949.40
2019-02-07T04:29:21.854Z,100947.31
2019-02-07T04:29:55.112Z,100946.81
2019-02-07T04:30:44.977Z,100942.86
2019-02-07T04:31:18.078Z,100949.72
2019-02-07T04:31:57.117Z,100947.20
2019-02-07T04:32:47.948Z,100948.22
2019-02-07T04:33:19.158Z,100944.33
2019-02-07T04:33:55.579Z,100950.52
2019-02-07T04:34:37.753Z,100946.63
2019-02-07T04:35:10.961Z,100943.44
2019-02-07T04:36:00.473Z,100940.55
2019-02-07T04:36:33.590Z,100946.52
2019-02-07T04:37:09.679Z,100945.34
2019-02-07T04:37:48.511Z,100947.03
2019-02-07T04:38:21.629Z,100944.73
2019-02-07T04:39:06.862Z,100947.81
2019-02-07T04:39:38.488Z,100947.71
2019-02-07T04:40:18.433Z,100942.46
2019-02-07T04:40:54.366Z,100938.47
2019-02-07T04:41:30.942Z,100943.55
2019-02-07T04:42:06.870Z,100940.48
2019-02-07T04:42:40.148Z,100944.27
2019-02-07T04:43:13.229Z,100942.06
2019-02-07T04:43:46.345Z,100924.17
2019-02-07T04:44:31.247Z,100924.17
2019-02-07T04:45:23.683Z,100935.92
2019-02-07T04:46:02.591Z,100936.72
2019-02-07T04:46:36.026Z,100931.94
2019-02-07T04:47:25.404Z,100928.84
2019-02-07T04:48:04.512Z,100932.72
2019-02-07T04:48:38.285Z,100932.72
2019-02-07T04:49:26.432Z,100929.56
2019-02-07T04:50:02.922Z,100935.13
2019-02-07T04:50:39.909Z,100930.24
2019-02-07T04:51:18.929Z,100931.53
2019-02-07T04:52:05.044Z,100929.77
2019-02-07T04:52:44.079Z,100930.56
2019-02-07T04:53:33.829Z,100921.41
2019-02-07T04:54:07.107Z,100922.13
2019-02-07T04:54:46.219Z,100922.13
2019-02-07T04:55:19.392Z,100921.22
2019-02-07T04:56:01.210Z,100916.84
2019-02-07T04:56:36.992Z,100916.84
2019-02-07T04:57:16.163Z,100918.02
2019-02-07T04:57:54.958Z,100918.85
2019-02-07T04:58:31.077Z,100913.17
2019-02-07T04:59:16.129Z,100913.67
2019-02-07T05:00:00.839Z,100917.55
2019-02-07T05:00:34.005Z,100918.53
2019-02-07T05:01:07.803Z,100916.34
2019-02-07T05:01:39.135Z,100916.73
2019-02-07T05:02:20.775Z,100920.14
2019-02-07T05:02:52.027Z,100918.74
2019-02-07T05:03:23.199Z,100915.26
2019-02-07T05:04:00.155Z,100918.63
2019-02-07T05:04:35.803Z,100911.20
2019-02-07T05:05:18.443Z,100914.58
2019-02-07T05:05:51.663Z,100915.36
2019-02-07T05:06:41.331Z,100918.34
2019-02-07T05:07:14.806Z,100911.02
2019-02-07T05:07:47.982Z,100912.48
2019-02-07T05:08:30.481Z,100910.72
2019-02-07T05:09:03.701Z,100910.72
2019-02-07T05:09:44.607Z,100901.56
2019-02-07T05:10:20.394Z,100903.36
2019-02-07T05:10:53.601Z,100902.56
2019-02-07T05:11:30.521Z,100897.39
2019-02-07T05:12:09.617Z,100895.60
2019-02-07T05:12:58.964Z,100897.68
2019-02-07T05:13:35.096Z,100893.70
2019-02-07T05:14:17.329Z,100897.58
2019-02-07T05:15:02.302Z,100894.52
2019-02-07T05:15:35.576Z,100899.30
2019-02-07T05:16:09.491Z,100891.43
2019-02-07T05:16:59.159Z,100900.38
2019-02-07T05:17:38.324Z,100893.52
2019-02-07T05:18:15.193Z,100896.50
2019-02-07T05:18:54.321Z,100900.69
2019-02-07T05:19:36.096Z,100896.81
2019-02-07T05:20:10.167Z,100896.81
2019-02-07T05:20:48.887Z,100897.72
2019-02-07T05:21:28.025Z,100894.52
2019-02-07T05:21:59.174Z,100901.77
2019-02-07T05:22:35.221Z,100899.69
2019-02-07T05:23:21.171Z,100897.21
2019-02-07T05:23:52.410Z,100900.58
2019-02-07T05:24:26.888Z,100902.78
2019-02-07T05:25:05.993Z,100903.17
2019-02-07T05:25:37.568Z,100902.27
2019-02-07T05:26:16.515Z,100902.27
2019-02-07T05:26:56.996Z,100901.48
2019-02-07T05:27:28.287Z,100898.79
2019-02-07T05:28:01.493Z,100905.76
2019-02-07T05:28:34.670Z,100901.37
2019-02-07T05:29:25.930Z,100889.08
2019-02-07T05:29:59.098Z,100889.08
2019-02-07T05:30:39.320Z,100900.48
2019-02-07T05:31:12.425Z,100908.23
2019-02-07T05:31:55.542Z,100900.48
2019-02-07T05:32:45.327Z,100898.32
2019-02-07T05:33:24.133Z,100903.38
2019-02-07T05:33:57.241Z,100903.49
2019-02-07T05:34:46.995Z,100897.81
2019-02-07T05:35:25.905Z,100900.01
2019-02-07T05:36:12.503Z,100902.48
2019-02-07T05:36:54.654Z,100898.21
2019-02-07T05:37:39.872Z,100899.50
2019-02-07T05:38:19.823Z,100899.39
2019-02-07T05:38:53.009Z,100895.45
2019-02-07T05:39:42.852Z,100902.88
2019-02-07T05:40:15.978Z,100899.90
2019-02-07T05:41:05.482Z,100897.20
2019-02-07T05:41:45.486Z,100912.72
2019-02-07T05:42:18.652Z,100905.47
2019-02-07T05:43:09.900Z,100899.00
2019-02-07T05:43:59.362Z,100906.77
2019-02-07T05:44:41.159Z,100900.30
2019-02-07T05:45:18.136Z,100908.05
2019-02-07T05:45:49.405Z,100901.98
2019-02-07T05:46:22.792Z,100901.77
2019-02-07T05:46:54.055Z,100900.58
2019-02-07T05:47:31.397Z,100898.11
2019-02-07T05:48:11.459Z,100901.16
2019-02-07T05:48:50.575Z,100904.25
2019-02-07T05:49:29.503Z,100901.48
2019-02-07T05:50:02.657Z,100895.80
2019-02-07T05:50:53.489Z,100903.49
2019-02-07T05:51:38.732Z,100899.19
2019-02-07T05:52:11.787Z,100897.71
2019-02-07T05:52:59.963Z,100897.71
2019-02-07T05:53:34.019Z,100900.30
2019-02-07T05:54:07.179Z,100900.69
2019-02-07T05:54:42.842Z,100898.10
2019-02-07T05:55:15.984Z,100901.08
2019-02-07T05:56:05.236Z,100898.89
2019-02-07T05:56:48.634Z,100891.56
2019-02-07T05:57:30.596Z,100893.83
2019-02-07T05:58:06.438Z,100899.00
2019-02-07T05:58:59.067Z,100896.52
2019-02-07T05:59:29.226Z,100899.19
2019-02-07T06:00:00.510Z,100892.44
2019-02-07T06:00:33.751Z,100895.02
2019-02-07T06:01:05.201Z,100893.73
2019-02-07T06:01:47.009Z,100891.93
2019-02-07T06:02:36.591Z,100891.93
2019-02-07T06:03:27.287Z,100893.22
2019-02-07T06:04:03.263Z,100892.72
2019-02-07T06:04:42.370Z,100891.53
2019-02-07T06:05:15.439Z,100892.44
2019-02-07T06:05:51.474Z,100891.03
2019-02-07T06:06:30.559Z,100896.12
2019-02-07T06:07:06.475Z,100891.75
2019-02-07T06:07:49.413Z,100890.06
2019-02-07T06:08:34.499Z,100892.64
2019-02-07T06:09:26.050Z,100891.35
2019-02-07T06:10:15.711Z,100893.04
2019-02-07T06:10:51.380Z,100890.45
2019-02-07T06:11:25.568Z,100894.84
2019-02-07T06:12:04.521Z,100897.42
2019-02-07T06:12:40.300Z,100892.25
2019-02-07T06:13:16.188Z,100894.33
2019-02-07T06:14:04.233Z,100897.31
2019-02-07T06:14:43.439Z,100894.33
2019-02-07T06:15:25.591Z,100897.20
2019-02-07T06:16:15.124Z,100894.15
2019-02-07T06:16:48.251Z,100898.81
2019-02-07T06:17:28.881Z,100901.30
2019-02-07T06:18:18.507Z,100895.22
2019-02-07T06:19:08.131Z,100898.31
2019-02-07T06:19:57.825Z,100892.75
2019-02-07T06:20:33.975Z,100892.75
2019-02-07T06:21:09.970Z,100902.70
2019-02-07T06:21:48.728Z,100893.64
2019-02-07T06:22:33.535Z,100895.91
2019-02-07T06:23:23.467Z,100898.03
2019-02-07T06:23:56.545Z,100893.64
2019-02-07T06:24:29.670Z,100892.17
2019-02-07T06:25:08.415Z,100887.39
2019-02-07T06:25:41.589Z,100888.30
2019-02-07T06:26:31.015Z,100892.17
2019-02-07T06:27:08.135Z,100892.56
2019-02-07T06:27:51.690Z,100894.14
2019-02-07T06:28:35.288Z,100894.06
2019-02-07T06:29:10.966Z,100894.46
2019-02-07T06:29:44.091Z,100898.63
2019-02-07T06:30:26.341Z,100893.84
2019-02-07T06:31:00.469Z,100890.29
2019-02-07T06:31:33.591Z,100895.14
2019-02-07T06:32:09.556Z,100896.04
2019-02-07T06:33:00.301Z,100894.86
2019-02-07T06:33:51.443Z,100895.64
2019-02-07T06:34:29.056Z,100902.00
2019-02-07T06:34:56.751Z,100901.02
2019-02-07T06:35:46.312Z,100895.23
2019-02-07T06:36:19.393Z,100902.20
2019-02-07T06:36:59.659Z,100902.71
2019-02-07T06:37:35.560Z,100899.73
2019-02-07T06:38:11.356Z,100901.10
2019-02-07T06:38:45.513Z,100899.52
2019-02-07T06:39:22.562Z,100901.61
2019-02-07T06:40:07.741Z,100891.66
2019-02-07T06:40:40.858Z,100894.64
2019-02-07T06:41:13.994Z,100896.94
2019-02-07T06:41:50.883Z,100896.94
2019-02-07T06:42:24.166Z,100895.75
2019-02-07T06:43:15.336Z,100898.81
2019-02-07T06:43:51.107Z,100897.84